createdAt,value
2019-01-22T00:00:19.511Z,23.40
2019-01-22T00:02:47.727Z,23.57
2019-01-22T00:05:17.308Z,23.23
2019-01-22T00:07:45.840Z,23.60
2019-01-22T00:10:14.608Z,23.13
2019-01-22T00:12:42.828Z,23.17
2019-01-22T00:15:11.818Z,22.77
2019-01-22T00:17:40.753Z,23.27
2019-01-22T00:20:10.921Z,22.50
2019-01-22T00:22:39.204Z,23.63
2019-01-22T00:25:15.639Z,22.90
2019-01-22T00:27:43.848Z,23.43
2019-01-22T00:30:18.606Z,21.43
2019-01-22T00:32:47.222Z,22.80
2019-01-22T00:35:15.620Z,23.07
2019-01-22T00:37:43.957Z,23.10
2019-01-22T00:40:13.826Z,22.30
2019-01-22T00:42:42.704Z,22.40
2019-01-22T00:45:12.102Z,22.50
2019-01-22T00:47:41.024Z,22.10
2019-01-22T00:50:10.630Z,21.13
2019-01-22T00:52:39.339Z,21.80
2019-01-22T00:55:08.862Z,22.57
2019-01-22T00:57:37.583Z,23.30
2019-01-22T01:00:19.380Z,20.90
2019-01-22T01:02:47.617Z,22.23
2019-01-22T01:05:15.919Z,22.50
2019-01-22T01:07:44.949Z,22.23
2019-01-22T01:10:14.742Z,23.43
2019-01-22T01:12:43.228Z,22.43
2019-01-22T01:15:14.115Z,21.83
2019-01-22T01:17:43.433Z,23.03
2019-01-22T01:20:15.199Z,22.33
2019-01-22T01:22:43.778Z,23.80
2019-01-22T01:25:13.108Z,21.23
2019-01-22T01:27:41.429Z,22.50
2019-01-22T01:30:11.207Z,22.97
2019-01-22T01:32:39.751Z,22.27
2019-01-22T01:35:08.359Z,23.07
2019-01-22T01:37:36.523Z,22.43
2019-01-22T01:40:06.214Z,23.73
2019-01-22T01:42:34.369Z,22.00
2019-01-22T01:45:02.576Z,23.17
2019-01-22T01:47:30.809Z,21.83
2019-01-22T01:49:59.952Z,22.40
2019-01-22T01:52:28.582Z,24.57
2019-01-22T01:54:57.121Z,23.40
2019-01-22T01:57:25.704Z,23.60
2019-01-22T01:59:53.949Z,22.13
2019-01-22T02:02:22.179Z,21.37
2019-01-22T02:04:50.840Z,24.20
2019-01-22T02:07:19.635Z,23.80
2019-01-22T02:09:48.186Z,23.67
2019-01-22T02:12:17.498Z,23.97
2019-01-22T02:14:49.093Z,23.93
2019-01-22T02:17:21.756Z,24.17
2019-01-22T02:19:56.207Z,23.50
2019-01-22T02:22:42.742Z,23.30
2019-01-22T02:25:14.405Z,22.97
2019-01-22T02:28:02.828Z,23.83
2019-01-22T02:30:52.545Z,23.73
2019-01-22T02:33:42.547Z,22.77
2019-01-22T02:36:16.934Z,22.90
2019-01-22T02:38:50.104Z,22.07
2019-01-22T02:41:19.875Z,22.23
2019-01-22T02:44:11.213Z,21.80
2019-01-22T02:46:57.960Z,23.53
2019-01-22T02:49:29.599Z,22.90
2019-01-22T02:52:03.041Z,22.00
2019-01-22T02:54:34.718Z,22.83
2019-01-22T02:57:18.082Z,22.03
2019-01-22T02:59:53.555Z,22.53
2019-01-22T03:02:29.097Z,22.77
2019-01-22T03:05:15.742Z,23.10
2019-01-22T03:07:48.239Z,21.87
2019-01-22T03:10:28.495Z,22.77
2019-01-22T03:13:02.907Z,23.47
2019-01-22T03:15:59.116Z,22.20
2019-01-22T03:18:33.481Z,20.90
2019-01-22T03:21:21.549Z,22.87
2019-01-22T03:24:05.688Z,21.17
2019-01-22T03:26:49.412Z,21.90
2019-01-22T03:29:24.171Z,22.37
2019-01-22T03:32:10.805Z,21.90
2019-01-22T03:35:05.424Z,23.73
2019-01-22T03:37:35.489Z,20.83
2019-01-22T03:40:10.035Z,21.90
2019-01-22T03:42:46.875Z,20.63
2019-01-22T03:45:16.640Z,21.67
2019-01-22T03:47:46.370Z,22.60
2019-01-22T03:50:35.926Z,21.87
2019-01-22T03:53:10.106Z,20.53
2019-01-22T03:55:50.289Z,22.90
2019-01-22T03:58:18.810Z,22.17
2019-01-22T04:00:47.083Z,22.63
2019-01-22T04:03:15.533Z,23.13
2019-01-22T04:05:44.217Z,21.73
2019-01-22T04:08:12.510Z,21.40
2019-01-22T04:10:41.031Z,22.03
2019-01-22T04:13:09.470Z,20.40
2019-01-22T04:15:37.695Z,20.40
2019-01-22T04:18:07.031Z,21.03
2019-01-22T04:20:35.246Z,20.57
2019-01-22T04:23:03.454Z,19.93
2019-01-22T04:25:51.213Z,19.53
2019-01-22T04:28:36.146Z,21.20
2019-01-22T04:31:07.716Z,19.27
2019-01-22T04:33:43.382Z,19.53
2019-01-22T04:36:28.130Z,20.10
2019-01-22T04:39:05.002Z,21.70
2019-01-22T04:41:36.670Z,20.67
2019-01-22T04:44:17.100Z,21.87
2019-01-22T04:47:08.312Z,22.03
2019-01-22T04:49:48.695Z,20.73
2019-01-22T04:52:29.394Z,20.07
2019-01-22T04:55:20.920Z,20.87
2019-01-22T04:57:52.568Z,21.93
2019-01-22T05:00:25.327Z,20.93
2019-01-22T05:03:02.668Z,20.40
2019-01-22T05:05:46.059Z,20.90
2019-01-22T05:08:15.877Z,20.13
2019-01-22T05:10:45.587Z,19.50
2019-01-22T05:13:22.932Z,20.87
2019-01-22T05:15:57.741Z,20.67
2019-01-22T05:18:53.772Z,19.77
2019-01-22T05:21:23.480Z,18.23
2019-01-22T05:24:07.125Z,20.37
2019-01-22T05:27:02.946Z,18.67
2019-01-22T05:29:47.607Z,19.90
2019-01-22T05:32:19.471Z,19.70
2019-01-22T05:34:55.199Z,20.90
2019-01-22T05:37:30.808Z,19.47
2019-01-22T05:40:09.754Z,19.83
2019-01-22T05:42:50.764Z,21.40
2019-01-22T05:45:26.232Z,20.20
2019-01-22T05:48:13.029Z,21.30
2019-01-22T05:50:54.858Z,19.70
2019-01-22T05:53:39.881Z,20.73
2019-01-22T05:56:11.434Z,19.43
2019-01-22T05:58:57.627Z,21.97
2019-01-22T06:01:27.236Z,19.57
2019-01-22T06:03:59.605Z,20.17
2019-01-22T06:06:32.245Z,20.33
2019-01-22T06:09:04.267Z,21.00
2019-01-22T06:11:50.872Z,20.30
2019-01-22T06:14:28.263Z,21.97
2019-01-22T06:17:17.094Z,20.30
2019-01-22T06:20:02.721Z,20.07
2019-01-22T06:22:51.899Z,19.13
2019-01-22T06:25:24.205Z,18.87
2019-01-22T06:27:53.931Z,20.73
2019-01-22T06:30:23.952Z,20.17
2019-01-22T06:32:59.892Z,19.23
2019-01-22T06:35:32.685Z,19.90
2019-01-22T06:38:26.060Z,20.13
2019-01-22T06:41:05.160Z,18.73
2019-01-22T06:43:51.984Z,19.97
2019-01-22T06:46:24.364Z,19.53
2019-01-22T06:49:00.698Z,20.20
2019-01-22T06:51:33.060Z,19.70
2019-01-22T06:54:19.526Z,21.97
2019-01-22T06:57:09.262Z,20.67
2019-01-22T06:59:49.568Z,20.20
2019-01-22T07:02:35.700Z,20.83
2019-01-22T07:05:09.101Z,20.27
2019-01-22T07:07:40.685Z,20.63
2019-01-22T07:10:30.026Z,19.20
2019-01-22T07:13:13.699Z,19.23
2019-01-22T07:16:18.348Z,18.23
2019-01-22T07:19:04.980Z,19.17
2019-01-22T07:21:42.655Z,18.47
2019-01-22T07:24:17.334Z,19.53
2019-01-22T07:27:20.289Z,17.63
2019-01-22T07:30:08.562Z,17.33
2019-01-22T07:32:58.400Z,16.97
2019-01-22T07:35:52.691Z,19.33
2019-01-22T07:38:24.283Z,17.80
2019-01-22T07:41:00.119Z,15.73
2019-01-22T07:43:46.757Z,16.33
2019-01-22T07:46:35.843Z,17.30
2019-01-22T07:49:22.336Z,16.47
2019-01-22T07:52:19.063Z,17.50
2019-01-22T07:55:14.784Z,16.67
2019-01-22T07:58:15.412Z,18.03
2019-01-22T08:00:53.095Z,16.07
2019-01-22T08:03:29.018Z,16.53
2019-01-22T08:06:02.481Z,16.33
2019-01-22T08:08:36.844Z,17.10
2019-01-22T08:11:28.601Z,16.80
2019-01-22T08:14:23.083Z,16.20
2019-01-22T08:17:10.090Z,17.37
2019-01-22T08:20:16.836Z,17.03
2019-01-22T08:23:36.984Z,16.20
2019-01-22T08:26:43.983Z,15.43
2019-01-22T08:29:40.814Z,16.70
2019-01-22T08:32:35.285Z,15.73
2019-01-22T08:35:29.665Z,17.57
2019-01-22T08:38:16.374Z,15.67
2019-01-22T08:40:53.927Z,15.70
2019-01-22T08:43:38.940Z,15.33
2019-01-22T08:46:10.529Z,14.53
2019-01-22T08:49:04.711Z,14.97
2019-01-22T08:51:45.088Z,14.67
2019-01-22T08:54:31.942Z,13.97
2019-01-22T08:57:01.950Z,14.17
2019-01-22T08:59:53.328Z,13.77
2019-01-22T09:02:26.698Z,14.13
2019-01-22T09:04:56.358Z,13.83
2019-01-22T09:07:37.958Z,13.73
2019-01-22T09:10:07.652Z,14.53
2019-01-22T09:12:45.040Z,14.23
2019-01-22T09:15:31.216Z,13.97
2019-01-22T09:18:00.962Z,13.40
2019-01-22T09:20:39.569Z,12.90
2019-01-22T09:23:13.950Z,14.07
2019-01-22T09:25:45.508Z,13.23
2019-01-22T09:28:15.203Z,14.43
2019-01-22T09:30:45.134Z,14.73
2019-01-22T09:33:23.625Z,16.43
2019-01-22T09:36:02.428Z,15.77
2019-01-22T09:38:30.906Z,14.27
2019-01-22T09:40:59.053Z,15.83
2019-01-22T09:43:27.243Z,15.20
2019-01-22T09:45:55.406Z,14.93
2019-01-22T09:48:23.964Z,16.53
2019-01-22T09:50:52.145Z,17.00
2019-01-22T09:53:20.621Z,16.27
2019-01-22T09:55:49.151Z,17.17
2019-01-22T09:58:17.330Z,16.20
2019-01-22T10:00:45.583Z,18.07
2019-01-22T10:03:13.736Z,18.17
2019-01-22T10:05:42.210Z,19.43
2019-01-22T10:08:10.788Z,18.33
2019-01-22T10:10:39.261Z,17.87
2019-01-22T10:13:07.443Z,18.27
2019-01-22T10:15:35.598Z,18.80
2019-01-22T10:18:04.325Z,19.13
2019-01-22T10:20:32.499Z,20.63
2019-01-22T10:23:00.649Z,17.80
2019-01-22T10:25:29.478Z,18.30
2019-01-22T10:27:58.089Z,19.13
2019-01-22T10:30:26.810Z,19.83
2019-01-22T10:32:54.968Z,17.60
2019-01-22T10:35:23.526Z,19.20
2019-01-22T10:37:52.175Z,18.90
2019-01-22T10:40:21.881Z,19.80
2019-01-22T10:42:50.240Z,19.97
2019-01-22T10:45:18.989Z,19.07
2019-01-22T10:47:47.173Z,16.53
2019-01-22T10:50:18.974Z,19.70
2019-01-22T10:52:47.189Z,19.47
2019-01-22T10:55:15.414Z,18.70
2019-01-22T10:57:43.680Z,18.73
2019-01-22T11:00:13.426Z,19.23
2019-01-22T11:02:42.248Z,19.83
2019-01-22T11:05:11.944Z,18.33
2019-01-22T11:07:40.430Z,20.17
2019-01-22T11:10:08.724Z,18.53
2019-01-22T11:12:36.886Z,19.90
2019-01-22T11:15:08.484Z,19.13
2019-01-22T11:17:36.651Z,18.23
2019-01-22T11:20:10.941Z,17.90
2019-01-22T11:22:39.504Z,18.10
2019-01-22T11:25:11.470Z,18.67
2019-01-22T11:27:39.957Z,19.17
2019-01-22T11:30:11.559Z,17.87
2019-01-22T11:32:40.051Z,18.80
2019-01-22T11:35:09.981Z,17.93
2019-01-22T11:37:38.474Z,16.93
2019-01-22T11:40:19.089Z,18.80
2019-01-22T11:42:47.244Z,17.27
2019-01-22T11:45:15.575Z,17.77
2019-01-22T11:47:43.903Z,18.07
2019-01-22T11:50:18.956Z,18.87
2019-01-22T11:52:47.175Z,21.13
2019-01-22T11:55:15.721Z,18.17
2019-01-22T11:57:43.856Z,18.93
2019-01-22T12:00:20.902Z,19.40
2019-01-22T12:02:49.065Z,18.90
2019-01-22T12:05:17.202Z,18.27
2019-01-22T12:07:45.454Z,18.10
2019-01-22T12:10:14.080Z,19.43
2019-01-22T12:12:42.295Z,18.23
2019-01-22T12:15:12.312Z,20.53
2019-01-22T12:17:40.457Z,18.47
2019-01-22T12:20:10.345Z,18.80
2019-01-22T12:22:38.506Z,17.97
2019-01-22T12:25:06.733Z,17.97
2019-01-22T12:27:35.921Z,17.37
2019-01-22T12:30:05.635Z,18.27
2019-01-22T12:32:34.098Z,18.67
2019-01-22T12:35:02.320Z,17.70
2019-01-22T12:37:30.456Z,18.47
2019-01-22T12:39:58.923Z,17.53
2019-01-22T12:42:27.135Z,17.57
2019-01-22T12:44:55.478Z,18.97
2019-01-22T12:47:24.246Z,17.17
2019-01-22T12:49:59.356Z,17.13
2019-01-22T12:52:28.848Z,17.93
2019-01-22T12:54:57.040Z,17.67
2019-01-22T12:57:25.188Z,18.17
2019-01-22T12:59:53.706Z,17.23
2019-01-22T13:02:22.222Z,17.00
2019-01-22T13:04:50.952Z,18.07
2019-01-22T13:07:19.755Z,17.07
2019-01-22T13:09:48.240Z,17.20
2019-01-22T13:12:17.140Z,17.13
2019-01-22T13:14:45.288Z,17.60
2019-01-22T13:17:13.864Z,17.63
2019-01-22T13:19:42.027Z,16.33
2019-01-22T13:22:10.200Z,16.30
2019-01-22T13:24:38.357Z,17.00
2019-01-22T13:27:06.899Z,17.43
2019-01-22T13:29:35.085Z,15.90
2019-01-22T13:32:03.263Z,17.47
2019-01-22T13:34:31.745Z,16.57
2019-01-22T13:37:00.312Z,15.87
2019-01-22T13:39:28.486Z,15.90
2019-01-22T13:41:56.631Z,16.00
2019-01-22T13:44:24.878Z,15.47
2019-01-22T13:46:56.257Z,14.73
2019-01-22T13:49:24.401Z,16.10
2019-01-22T13:51:53.311Z,14.87
2019-01-22T13:54:21.798Z,15.43
2019-01-22T13:56:50.367Z,15.90
2019-01-22T13:59:18.878Z,15.97
2019-01-22T14:01:47.061Z,15.40
2019-01-22T14:04:15.609Z,15.47
2019-01-22T14:06:44.328Z,15.57
2019-01-22T14:09:12.940Z,14.97
2019-01-22T14:11:41.441Z,15.03
2019-01-22T14:14:09.924Z,15.60
2019-01-22T14:16:38.419Z,15.77
2019-01-22T14:19:06.905Z,14.30
2019-01-22T14:21:35.120Z,14.40
2019-01-22T14:24:03.332Z,15.57
2019-01-22T14:26:31.821Z,15.80
2019-01-22T14:29:00.713Z,15.50
2019-01-22T14:31:32.154Z,14.40
2019-01-22T14:33:59.551Z,15.63
2019-01-22T14:36:28.074Z,15.47
2019-01-22T14:38:56.595Z,15.63
2019-01-22T14:41:25.152Z,15.00
2019-01-22T14:43:53.628Z,15.80
2019-01-22T14:46:22.477Z,16.23
2019-01-22T14:48:51.342Z,16.20
2019-01-22T14:51:19.915Z,17.20
2019-01-22T14:53:48.389Z,15.00
2019-01-22T14:56:16.833Z,14.97
2019-01-22T14:58:44.993Z,15.00
2019-01-22T15:01:13.156Z,15.47
2019-01-22T15:03:41.677Z,16.00
2019-01-22T15:06:09.904Z,15.57
2019-01-22T15:08:38.054Z,15.53
2019-01-22T15:11:06.400Z,15.97
2019-01-22T15:13:34.541Z,16.90
2019-01-22T15:16:02.717Z,16.80
2019-01-22T15:18:30.860Z,15.93
2019-01-22T15:20:59.046Z,17.37
2019-01-22T15:23:27.227Z,17.53
2019-01-22T15:25:55.775Z,17.40
2019-01-22T15:28:23.970Z,17.10
2019-01-22T15:30:52.174Z,16.23
2019-01-22T15:33:20.441Z,15.23
2019-01-22T15:35:48.634Z,16.67
2019-01-22T15:38:16.822Z,16.77
2019-01-22T15:40:44.973Z,16.47
2019-01-22T15:43:13.140Z,15.50
2019-01-22T15:45:41.373Z,16.40
2019-01-22T15:48:09.640Z,16.67
2019-01-22T15:50:38.108Z,16.47
2019-01-22T15:53:06.271Z,15.33
2019-01-22T15:55:36.093Z,16.33
2019-01-22T15:58:04.510Z,17.40
2019-01-22T16:00:32.752Z,16.87
2019-01-22T16:03:00.917Z,16.17
2019-01-22T16:05:29.136Z,17.07
2019-01-22T16:07:57.284Z,17.07
2019-01-22T16:10:25.492Z,17.77
2019-01-22T16:12:53.633Z,16.83
2019-01-22T16:15:24.744Z,16.90
2019-01-22T16:17:53.681Z,15.33
2019-01-22T16:20:25.609Z,16.30
2019-01-22T16:22:54.045Z,15.80
2019-01-22T16:25:22.473Z,16.80
2019-01-22T16:27:51.041Z,15.07
2019-01-22T16:30:23.054Z,16.60
2019-01-22T16:32:51.357Z,16.47
2019-01-22T16:35:20.490Z,15.90
2019-01-22T16:37:49.190Z,16.20
2019-01-22T16:40:17.444Z,16.27
2019-01-22T16:42:46.817Z,16.93
2019-01-22T16:45:30.162Z,17.20
2019-01-22T16:47:58.295Z,16.13
2019-01-22T16:50:27.136Z,16.47
2019-01-22T16:52:55.258Z,16.27
2019-01-22T16:55:25.016Z,17.50
2019-01-22T16:57:53.570Z,18.73
2019-01-22T17:00:26.007Z,17.80
2019-01-22T17:02:54.658Z,19.23
2019-01-22T17:05:22.864Z,18.00
2019-01-22T17:07:51.338Z,18.83
2019-01-22T17:10:20.764Z,20.27
2019-01-22T17:12:49.162Z,18.37
2019-01-22T17:15:18.480Z,20.17
2019-01-22T17:17:46.664Z,19.57
2019-01-22T17:20:19.298Z,19.03
2019-01-22T17:22:47.981Z,17.77
2019-01-22T17:25:16.476Z,19.80
2019-01-22T17:27:44.968Z,17.93
2019-01-22T17:30:16.262Z,18.60
2019-01-22T17:32:51.942Z,19.93
2019-01-22T17:35:20.684Z,20.03
2019-01-22T17:37:49.772Z,19.10
2019-01-22T17:40:18.246Z,19.57
2019-01-22T17:42:47.124Z,20.53
2019-01-22T17:45:15.975Z,18.73
2019-01-22T17:47:44.473Z,19.73
2019-01-22T17:50:13.603Z,18.67
2019-01-22T17:52:41.773Z,19.53
2019-01-22T17:55:11.708Z,20.23
2019-01-22T17:57:40.222Z,19.07
2019-01-22T18:00:14.545Z,19.70
2019-01-22T18:02:42.820Z,18.73
2019-01-22T18:05:12.441Z,20.30
2019-01-22T18:07:41.078Z,19.00
2019-01-22T18:10:10.708Z,18.23
2019-01-22T18:12:38.875Z,19.63
2019-01-22T18:15:10.403Z,18.23
2019-01-22T18:17:38.890Z,18.57
2019-01-22T18:20:18.352Z,19.67
2019-01-22T18:22:46.822Z,19.30
2019-01-22T18:25:15.469Z,18.73
2019-01-22T18:27:43.685Z,19.03
2019-01-22T18:30:20.670Z,18.30
2019-01-22T18:32:49.975Z,18.50
2019-01-22T18:35:19.543Z,19.50
2019-01-22T18:37:47.730Z,19.17
2019-01-22T18:40:16.281Z,17.47
2019-01-22T18:42:44.480Z,18.93
2019-01-22T18:45:14.200Z,18.03
2019-01-22T18:47:42.717Z,19.00
2019-01-22T18:50:14.308Z,17.87
2019-01-22T18:52:43.166Z,18.07
2019-01-22T18:55:11.655Z,17.80
2019-01-22T18:57:40.147Z,19.03
2019-01-22T19:00:17.010Z,19.23
2019-01-22T19:02:45.846Z,18.23
2019-01-22T19:05:14.441Z,19.73
2019-01-22T19:07:42.605Z,18.83
2019-01-22T19:10:12.989Z,20.23
2019-01-22T19:12:41.278Z,19.77
2019-01-22T19:15:12.887Z,19.13
2019-01-22T19:17:44.819Z,21.13
2019-01-22T19:20:13.479Z,20.60
2019-01-22T19:22:41.720Z,19.57
2019-01-22T19:25:14.204Z,19.73
2019-01-22T19:27:43.119Z,19.63
2019-01-22T19:30:18.738Z,21.70
2019-01-22T19:32:48.028Z,20.30
2019-01-22T19:35:16.810Z,20.50
2019-01-22T19:37:45.607Z,21.60
2019-01-22T19:40:16.219Z,20.90
2019-01-22T19:42:44.979Z,19.60
2019-01-22T19:45:17.201Z,20.10
2019-01-22T19:47:45.371Z,20.10
2019-01-22T19:50:14.591Z,21.03
2019-01-22T19:52:43.292Z,21.40
2019-01-22T19:55:11.673Z,21.00
2019-01-22T19:57:41.163Z,20.73
2019-01-22T20:00:13.955Z,21.53
2019-01-22T20:02:42.111Z,21.60
2019-01-22T20:05:10.961Z,21.63
2019-01-22T20:07:39.815Z,21.33
2019-01-22T20:10:13.520Z,21.67
2019-01-22T20:12:42.057Z,21.90
2019-01-22T20:15:13.280Z,23.80
2019-01-22T20:17:41.486Z,21.00
2019-01-22T20:20:11.229Z,19.33
2019-01-22T20:22:39.699Z,21.53
2019-01-22T20:25:08.087Z,21.53
2019-01-22T20:27:36.297Z,22.17
2019-01-22T20:30:24.343Z,21.43
2019-01-22T20:32:52.501Z,20.13
2019-01-22T20:35:21.064Z,19.53
2019-01-22T20:37:49.657Z,19.43
2019-01-22T20:40:17.902Z,20.83
2019-01-22T20:42:46.070Z,19.63
2019-01-22T20:45:15.322Z,19.80
2019-01-22T20:47:43.854Z,18.77
2019-01-22T20:50:18.978Z,21.23
2019-01-22T20:52:43.931Z,20.53
2019-01-22T20:55:14.494Z,20.20
2019-01-22T20:57:43.002Z,19.93
2019-01-22T21:00:12.911Z,20.83
2019-01-22T21:02:41.079Z,19.93
2019-01-22T21:05:12.899Z,20.03
2019-01-22T21:07:41.154Z,19.63
2019-01-22T21:10:24.274Z,21.13
2019-01-22T21:12:53.128Z,18.17
2019-01-22T21:15:22.342Z,18.70
2019-01-22T21:17:50.497Z,18.97
2019-01-22T21:20:19.136Z,19.70
2019-01-22T21:22:47.340Z,21.37
2019-01-22T21:25:16.573Z,19.53
2019-01-22T21:27:44.822Z,18.73
2019-01-22T21:30:14.541Z,18.20
2019-01-22T21:32:42.696Z,17.93
2019-01-22T21:35:10.974Z,20.33
2019-01-22T21:37:39.495Z,19.57
2019-01-22T21:40:09.418Z,19.23
2019-01-22T21:42:38.238Z,19.20
2019-01-22T21:45:24.565Z,18.07
2019-01-22T21:47:53.132Z,18.93
2019-01-22T21:50:21.367Z,19.83
2019-01-22T21:52:49.508Z,20.20
2019-01-22T21:55:18.763Z,19.83
2019-01-22T21:57:47.310Z,20.67
2019-01-22T22:00:19.460Z,19.07
2019-01-22T22:02:47.704Z,19.37
2019-01-22T22:05:16.942Z,19.77
2019-01-22T22:07:45.478Z,18.27
2019-01-22T22:10:15.175Z,17.07
2019-01-22T22:12:43.750Z,19.33
2019-01-22T22:15:13.638Z,19.03
2019-01-22T22:17:41.819Z,18.23
2019-01-22T22:20:11.442Z,19.70
2019-01-22T22:22:40.311Z,19.40
2019-01-22T22:25:10.227Z,17.73
2019-01-22T22:27:39.396Z,17.60
2019-01-22T22:30:11.986Z,18.63
2019-01-22T22:32:40.189Z,19.47
2019-01-22T22:35:08.690Z,19.43
2019-01-22T22:37:36.849Z,18.77
2019-01-22T22:40:06.542Z,18.90
2019-01-22T22:42:35.459Z,17.97
2019-01-22T22:45:05.856Z,19.20
2019-01-22T22:47:34.931Z,18.47
2019-01-22T22:50:03.189Z,20.03
2019-01-22T22:52:31.329Z,20.73
2019-01-22T22:54:59.821Z,20.70
2019-01-22T22:57:28.301Z,19.40
2019-01-22T22:59:56.442Z,18.53
2019-01-22T23:02:24.676Z,18.00
2019-01-22T23:04:52.837Z,18.70
2019-01-22T23:07:21.020Z,17.60
2019-01-22T23:09:49.179Z,18.77
2019-01-22T23:12:17.341Z,19.23
2019-01-22T23:14:45.487Z,18.43
2019-01-22T23:17:13.656Z,18.27
2019-01-22T23:19:41.789Z,18.50
2019-01-22T23:22:10.265Z,18.20
2019-01-22T23:24:38.799Z,18.37
2019-01-22T23:27:07.195Z,18.17
2019-01-22T23:29:35.331Z,18.33
2019-01-22T23:32:05.138Z,18.50
2019-01-22T23:34:33.301Z,18.23
2019-01-22T23:37:01.506Z,18.53
2019-01-22T23:39:29.661Z,20.17
2019-01-22T23:41:57.809Z,19.37
2019-01-22T23:44:25.983Z,17.60
2019-01-22T23:46:54.124Z,18.97
2019-01-22T23:49:22.295Z,18.27
2019-01-22T23:51:50.892Z,18.63
2019-01-22T23:54:19.392Z,18.50
2019-01-22T23:56:47.558Z,18.60
2019-01-22T23:59:15.693Z,18.97
